If you wish to contribute or participate in the discussions about articles you are invited to join SKYbrary as a registered user

 Actions

Argyle Airport

From SKYbrary Wiki

YARG
Airport
ICAO: YARG – IATA: GYL
Summary
Name Argyle Airport
Region Asia and Pacific
Territory Australia AU.gif
Location Argyle, Western Australia
Serving Argyle
Elevation 159.106 m
522 ft
522 ft159.106 m
Type small airport
Coordinates -16° 38' 12.84", 128° 27' 3.6"
Runways
Designator Length Width Surface ROPS
1/19 2300 m7,545.932 ft 30 m98.425 ft ASP /
METAR
Observation YARG 132000Z AUTO 35008KT 9999 // NCD 29/25 Q1007
Station Argyle Airport
Date/Time 13 December 2017 20:00:00
Wind direction 350°
Wind speed 08 kts
Lowest cloud amount no clouds detected
Temperature 29°C
Dew point 25°C
Humidity 79%
QNH 1007 hPa
Weather condition n/a